sensor_id;sensor_type;location;lat;lon;timestamp;P1;durP1;ratioP1;P2;durP2;ratioP2
41817;SDS011;27493;51.730;5.294;2023-04-07T00:00:33;24.50;;;10.23;;
41817;SDS011;27493;51.730;5.294;2023-04-07T00:02:58;15.10;;;9.53;;
41817;SDS011;27493;51.730;5.294;2023-04-07T00:05:26;20.87;;;9.90;;
41817;SDS011;27493;51.730;5.294;2023-04-07T00:07:51;18.50;;;8.10;;
41817;SDS011;27493;51.730;5.294;2023-04-07T00:10:16;18.60;;;9.30;;
41817;SDS011;27493;51.730;5.294;2023-04-07T00:12:41;17.53;;;8.57;;
41817;SDS011;27493;51.730;5.294;2023-04-07T00:15:07;19.40;;;9.17;;
41817;SDS011;27493;51.730;5.294;2023-04-07T00:17:32;15.53;;;8.77;;
41817;SDS011;27493;51.730;5.294;2023-04-07T00:19:57;19.07;;;8.43;;
41817;SDS011;27493;51.730;5.294;2023-04-07T00:22:22;18.23;;;8.20;;
41817;SDS011;27493;51.730;5.294;2023-04-07T00:24:48;16.70;;;7.60;;
41817;SDS011;27493;51.730;5.294;2023-04-07T00:27:13;18.30;;;8.13;;
41817;SDS011;27493;51.730;5.294;2023-04-07T00:29:38;16.23;;;8.13;;
41817;SDS011;27493;51.730;5.294;2023-04-07T00:32:03;14.20;;;7.37;;
41817;SDS011;27493;51.730;5.294;2023-04-07T00:34:28;13.87;;;7.33;;
41817;SDS011;27493;51.730;5.294;2023-04-07T00:36:54;16.30;;;7.10;;
41817;SDS011;27493;51.730;5.294;2023-04-07T00:39:19;11.97;;;7.00;;
41817;SDS011;27493;51.730;5.294;2023-04-07T00:41:45;16.20;;;6.87;;
41817;SDS011;27493;51.730;5.294;2023-04-07T00:44:10;11.70;;;6.80;;
41817;SDS011;27493;51.730;5.294;2023-04-07T00:46:35;13.27;;;7.20;;
41817;SDS011;27493;51.730;5.294;2023-04-07T00:49:01;12.93;;;6.47;;
41817;SDS011;27493;51.730;5.294;2023-04-07T00:51:26;11.57;;;6.60;;
41817;SDS011;27493;51.730;5.294;2023-04-07T00:53:51;13.90;;;6.67;;
41817;SDS011;27493;51.730;5.294;2023-04-07T00:56:16;13.77;;;7.27;;
41817;SDS011;27493;51.730;5.294;2023-04-07T00:58:41;13.30;;;6.80;;
41817;SDS011;27493;51.730;5.294;2023-04-07T01:01:07;15.27;;;6.67;;
41817;SDS011;27493;51.730;5.294;2023-04-07T01:03:34;12.93;;;7.73;;
41817;SDS011;27493;51.730;5.294;2023-04-07T01:06:01;13.37;;;6.93;;
41817;SDS011;27493;51.730;5.294;2023-04-07T01:08:32;11.47;;;6.23;;
41817;SDS011;27493;51.730;5.294;2023-04-07T01:11:02;12.40;;;6.80;;
41817;SDS011;27493;51.730;5.294;2023-04-07T01:13:35;11.93;;;6.63;;
41817;SDS011;27493;51.730;5.294;2023-04-07T01:16:03;12.13;;;7.00;;
41817;SDS011;27493;51.730;5.294;2023-04-07T01:18:30;11.60;;;5.70;;
41817;SDS011;27493;51.730;5.294;2023-04-07T01:20:59;14.77;;;5.73;;
41817;SDS011;27493;51.730;5.294;2023-04-07T01:23:38;11.13;;;5.80;;
41817;SDS011;27493;51.730;5.294;2023-04-07T01:26:06;8.63;;;5.67;;
41817;SDS011;27493;51.730;5.294;2023-04-07T01:28:45;9.17;;;5.30;;
41817;SDS011;27493;51.730;5.294;2023-04-07T01:31:13;12.83;;;5.60;;
41817;SDS011;27493;51.730;5.294;2023-04-07T01:33:39;13.87;;;5.50;;
41817;SDS011;27493;51.730;5.294;2023-04-07T01:36:07;17.23;;;5.63;;
41817;SDS011;27493;51.730;5.294;2023-04-07T01:38:33;10.20;;;5.70;;
41817;SDS011;27493;51.730;5.294;2023-04-07T01:40:58;11.70;;;5.87;;
41817;SDS011;27493;51.730;5.294;2023-04-07T01:43:24;11.73;;;6.00;;
41817;SDS011;27493;51.730;5.294;2023-04-07T01:45:51;13.50;;;6.60;;
41817;SDS011;27493;51.730;5.294;2023-04-07T01:48:18;10.53;;;6.67;;
41817;SDS011;27493;51.730;5.294;2023-04-07T01:50:43;11.60;;;6.07;;
41817;SDS011;27493;51.730;5.294;2023-04-07T01:53:08;12.60;;;6.97;;
41817;SDS011;27493;51.730;5.294;2023-04-07T01:55:34;14.73;;;7.20;;
41817;SDS011;27493;51.730;5.294;2023-04-07T01:58:04;13.27;;;6.63;;
41817;SDS011;27493;51.730;5.294;2023-04-07T02:00:30;13.67;;;6.57;;
41817;SDS011;27493;51.730;5.294;2023-04-07T02:02:58;12.73;;;6.27;;
41817;SDS011;27493;51.730;5.294;2023-04-07T02:05:23;14.00;;;6.23;;
41817;SDS011;27493;51.730;5.294;2023-04-07T02:10:14;10.57;;;6.32;;
41817;SDS011;27493;51.730;5.294;2023-04-07T02:12:40;14.37;;;6.57;;
41817;SDS011;27493;51.730;5.294;2023-04-07T02:15:07;10.50;;;6.20;;
41817;SDS011;27493;51.730;5.294;2023-04-07T02:17:33;14.97;;;6.83;;
41817;SDS011;27493;51.730;5.294;2023-04-07T02:19:59;13.57;;;6.80;;
41817;SDS011;27493;51.730;5.294;2023-04-07T02:22:25;12.07;;;6.63;;
41817;SDS011;27493;51.730;5.294;2023-04-07T02:24:50;13.27;;;6.70;;
41817;SDS011;27493;51.730;5.294;2023-04-07T02:27:16;13.20;;;6.00;;
41817;SDS011;27493;51.730;5.294;2023-04-07T02:29:41;11.37;;;6.47;;
41817;SDS011;27493;51.730;5.294;2023-04-07T02:32:06;13.53;;;6.83;;
41817;SDS011;27493;51.730;5.294;2023-04-07T02:34:31;11.93;;;6.13;;
41817;SDS011;27493;51.730;5.294;2023-04-07T02:36:56;8.57;;;5.80;;
41817;SDS011;27493;51.730;5.294;2023-04-07T02:39:21;10.83;;;6.00;;
41817;SDS011;27493;51.730;5.294;2023-04-07T02:41:47;14.13;;;6.43;;
41817;SDS011;27493;51.730;5.294;2023-04-07T02:44:12;14.00;;;6.20;;
41817;SDS011;27493;51.730;5.294;2023-04-07T02:46:37;15.17;;;6.90;;
41817;SDS011;27493;51.730;5.294;2023-04-07T02:49:02;13.57;;;6.10;;
41817;SDS011;27493;51.730;5.294;2023-04-07T02:51:27;11.93;;;6.43;;
41817;SDS011;27493;51.730;5.294;2023-04-07T02:53:53;15.50;;;7.10;;
41817;SDS011;27493;51.730;5.294;2023-04-07T02:56:18;15.53;;;6.63;;
41817;SDS011;27493;51.730;5.294;2023-04-07T02:58:43;11.13;;;6.73;;
41817;SDS011;27493;51.730;5.294;2023-04-07T03:01:08;13.13;;;6.67;;
41817;SDS011;27493;51.730;5.294;2023-04-07T03:03:33;11.30;;;6.17;;
41817;SDS011;27493;51.730;5.294;2023-04-07T03:05:58;11.97;;;6.00;;
41817;SDS011;27493;51.730;5.294;2023-04-07T03:08:24;16.33;;;6.97;;
41817;SDS011;27493;51.730;5.294;2023-04-07T03:10:49;18.80;;;6.70;;
41817;SDS011;27493;51.730;5.294;2023-04-07T03:13:14;14.20;;;5.93;;
41817;SDS011;27493;51.730;5.294;2023-04-07T03:15:43;16.80;;;5.63;;
41817;SDS011;27493;51.730;5.294;2023-04-07T03:18:08;12.33;;;5.23;;
41817;SDS011;27493;51.730;5.294;2023-04-07T03:20:35;13.30;;;5.50;;
41817;SDS011;27493;51.730;5.294;2023-04-07T03:23:00;17.63;;;5.20;;
41817;SDS011;27493;51.730;5.294;2023-04-07T03:25:25;14.27;;;6.00;;
41817;SDS011;27493;51.730;5.294;2023-04-07T03:27:51;14.50;;;5.20;;
41817;SDS011;27493;51.730;5.294;2023-04-07T03:30:16;14.53;;;5.57;;
41817;SDS011;27493;51.730;5.294;2023-04-07T03:32:41;17.17;;;6.03;;
41817;SDS011;27493;51.730;5.294;2023-04-07T03:35:07;16.40;;;6.70;;
41817;SDS011;27493;51.730;5.294;2023-04-07T03:37:32;14.43;;;6.67;;
41817;SDS011;27493;51.730;5.294;2023-04-07T03:39:57;16.40;;;6.90;;
41817;SDS011;27493;51.730;5.294;2023-04-07T03:42:22;17.40;;;7.27;;
41817;SDS011;27493;51.730;5.294;2023-04-07T03:44:48;23.13;;;8.53;;
41817;SDS011;27493;51.730;5.294;2023-04-07T03:47:13;26.87;;;8.90;;
41817;SDS011;27493;51.730;5.294;2023-04-07T03:49:38;23.03;;;7.70;;
41817;SDS011;27493;51.730;5.294;2023-04-07T03:52:03;18.53;;;8.83;;
41817;SDS011;27493;51.730;5.294;2023-04-07T03:54:29;21.57;;;8.07;;
41817;SDS011;27493;51.730;5.294;2023-04-07T03:56:54;14.73;;;6.90;;
41817;SDS011;27493;51.730;5.294;2023-04-07T03:59:21;16.53;;;7.23;;
41817;SDS011;27493;51.730;5.294;2023-04-07T04:01:46;17.53;;;7.47;;
41817;SDS011;27493;51.730;5.294;2023-04-07T04:04:11;16.20;;;7.07;;
41817;SDS011;27493;51.730;5.294;2023-04-07T04:06:36;18.07;;;7.40;;
41817;SDS011;27493;51.730;5.294;2023-04-07T04:09:02;18.73;;;7.97;;
41817;SDS011;27493;51.730;5.294;2023-04-07T04:11:27;18.63;;;7.73;;
41817;SDS011;27493;51.730;5.294;2023-04-07T04:13:52;18.93;;;7.77;;
41817;SDS011;27493;51.730;5.294;2023-04-07T04:16:17;15.77;;;8.10;;
41817;SDS011;27493;51.730;5.294;2023-04-07T04:18:42;23.27;;;8.77;;
41817;SDS011;27493;51.730;5.294;2023-04-07T04:21:07;26.47;;;8.87;;
41817;SDS011;27493;51.730;5.294;2023-04-07T04:23:33;22.30;;;8.83;;
41817;SDS011;27493;51.730;5.294;2023-04-07T04:25:58;20.60;;;8.03;;
41817;SDS011;27493;51.730;5.294;2023-04-07T04:28:24;22.73;;;8.30;;
41817;SDS011;27493;51.730;5.294;2023-04-07T04:30:49;21.57;;;9.00;;
41817;SDS011;27493;51.730;5.294;2023-04-07T04:33:14;23.60;;;9.23;;
41817;SDS011;27493;51.730;5.294;2023-04-07T04:35:40;17.17;;;7.90;;
41817;SDS011;27493;51.730;5.294;2023-04-07T04:38:05;16.93;;;7.73;;
41817;SDS011;27493;51.730;5.294;2023-04-07T04:40:30;17.07;;;7.00;;
41817;SDS011;27493;51.730;5.294;2023-04-07T04:42:55;16.40;;;7.33;;
41817;SDS011;27493;51.730;5.294;2023-04-07T04:45:20;20.27;;;8.30;;
41817;SDS011;27493;51.730;5.294;2023-04-07T04:47:45;20.37;;;8.93;;
41817;SDS011;27493;51.730;5.294;2023-04-07T04:50:11;30.37;;;9.10;;
41817;SDS011;27493;51.730;5.294;2023-04-07T04:52:36;30.20;;;9.50;;
41817;SDS011;27493;51.730;5.294;2023-04-07T04:55:03;20.93;;;8.57;;
41817;SDS011;27493;51.730;5.294;2023-04-07T04:57:28;23.67;;;10.03;;
41817;SDS011;27493;51.730;5.294;2023-04-07T04:59:53;23.97;;;10.10;;
41817;SDS011;27493;51.730;5.294;2023-04-07T05:02:19;25.80;;;9.53;;
41817;SDS011;27493;51.730;5.294;2023-04-07T05:04:44;23.53;;;9.57;;
41817;SDS011;27493;51.730;5.294;2023-04-07T05:07:09;24.37;;;9.93;;
41817;SDS011;27493;51.730;5.294;2023-04-07T05:09:34;24.80;;;9.73;;
41817;SDS011;27493;51.730;5.294;2023-04-07T05:12:00;27.07;;;10.93;;
41817;SDS011;27493;51.730;5.294;2023-04-07T05:14:26;26.13;;;9.73;;
41817;SDS011;27493;51.730;5.294;2023-04-07T05:16:51;19.77;;;9.37;;
41817;SDS011;27493;51.730;5.294;2023-04-07T05:19:18;22.73;;;9.93;;
41817;SDS011;27493;51.730;5.294;2023-04-07T05:21:43;24.67;;;9.23;;
41817;SDS011;27493;51.730;5.294;2023-04-07T05:24:08;26.70;;;10.07;;
41817;SDS011;27493;51.730;5.294;2023-04-07T05:26:33;23.77;;;9.70;;
41817;SDS011;27493;51.730;5.294;2023-04-07T05:28:59;26.80;;;9.60;;
41817;SDS011;27493;51.730;5.294;2023-04-07T05:31:24;24.60;;;9.57;;
41817;SDS011;27493;51.730;5.294;2023-04-07T05:36:52;27.30;;;10.67;;
41817;SDS011;27493;51.730;5.294;2023-04-07T05:42:20;25.50;;;10.30;;
41817;SDS011;27493;51.730;5.294;2023-04-07T05:44:45;26.30;;;10.37;;
41817;SDS011;27493;51.730;5.294;2023-04-07T05:47:10;24.20;;;10.50;;
41817;SDS011;27493;51.730;5.294;2023-04-07T05:49:36;30.30;;;10.10;;
41817;SDS011;27493;51.730;5.294;2023-04-07T05:52:01;24.33;;;11.17;;
41817;SDS011;27493;51.730;5.294;2023-04-07T05:54:30;26.57;;;10.37;;
41817;SDS011;27493;51.730;5.294;2023-04-07T05:56:55;25.33;;;10.93;;
41817;SDS011;27493;51.730;5.294;2023-04-07T05:59:21;26.47;;;10.67;;
41817;SDS011;27493;51.730;5.294;2023-04-07T06:01:46;23.57;;;9.93;;
41817;SDS011;27493;51.730;5.294;2023-04-07T06:04:11;33.07;;;11.33;;
41817;SDS011;27493;51.730;5.294;2023-04-07T06:06:36;23.07;;;11.27;;
41817;SDS011;27493;51.730;5.294;2023-04-07T06:09:02;26.47;;;10.50;;
41817;SDS011;27493;51.730;5.294;2023-04-07T06:11:27;27.40;;;11.17;;
41817;SDS011;27493;51.730;5.294;2023-04-07T06:13:52;27.93;;;10.67;;
41817;SDS011;27493;51.730;5.294;2023-04-07T06:16:18;31.37;;;11.20;;
41817;SDS011;27493;51.730;5.294;2023-04-07T06:18:43;30.73;;;11.77;;
41817;SDS011;27493;51.730;5.294;2023-04-07T06:21:08;29.43;;;11.43;;
41817;SDS011;27493;51.730;5.294;2023-04-07T06:23:34;28.47;;;10.73;;
41817;SDS011;27493;51.730;5.294;2023-04-07T06:25:59;30.53;;;11.53;;
41817;SDS011;27493;51.730;5.294;2023-04-07T06:28:24;26.60;;;10.93;;
41817;SDS011;27493;51.730;5.294;2023-04-07T06:30:49;23.63;;;10.37;;
41817;SDS011;27493;51.730;5.294;2023-04-07T06:33:14;21.90;;;9.87;;
41817;SDS011;27493;51.730;5.294;2023-04-07T06:35:40;20.40;;;9.80;;
41817;SDS011;27493;51.730;5.294;2023-04-07T06:38:05;19.60;;;9.50;;
41817;SDS011;27493;51.730;5.294;2023-04-07T06:40:31;22.80;;;9.63;;
41817;SDS011;27493;51.730;5.294;2023-04-07T06:42:56;17.13;;;8.20;;
41817;SDS011;27493;51.730;5.294;2023-04-07T06:45:21;15.80;;;7.60;;
41817;SDS011;27493;51.730;5.294;2023-04-07T06:47:47;13.23;;;6.90;;
41817;SDS011;27493;51.730;5.294;2023-04-07T06:50:12;16.83;;;7.23;;
41817;SDS011;27493;51.730;5.294;2023-04-07T06:52:37;14.80;;;7.30;;
41817;SDS011;27493;51.730;5.294;2023-04-07T06:55:03;14.20;;;6.63;;
41817;SDS011;27493;51.730;5.294;2023-04-07T06:57:28;12.30;;;6.73;;
41817;SDS011;27493;51.730;5.294;2023-04-07T06:59:53;14.90;;;6.13;;
41817;SDS011;27493;51.730;5.294;2023-04-07T07:02:18;12.03;;;5.80;;
41817;SDS011;27493;51.730;5.294;2023-04-07T07:04:43;14.03;;;5.77;;
41817;SDS011;27493;51.730;5.294;2023-04-07T07:07:09;14.03;;;5.43;;
41817;SDS011;27493;51.730;5.294;2023-04-07T07:09:34;10.37;;;5.37;;
41817;SDS011;27493;51.730;5.294;2023-04-07T07:11:59;16.70;;;6.27;;
41817;SDS011;27493;51.730;5.294;2023-04-07T07:14:26;9.60;;;5.10;;
41817;SDS011;27493;51.730;5.294;2023-04-07T07:16:51;9.17;;;4.60;;
41817;SDS011;27493;51.730;5.294;2023-04-07T07:19:16;13.07;;;4.97;;
41817;SDS011;27493;51.730;5.294;2023-04-07T07:21:41;7.90;;;4.77;;
41817;SDS011;27493;51.730;5.294;2023-04-07T07:24:07;8.77;;;4.30;;
41817;SDS011;27493;51.730;5.294;2023-04-07T07:26:32;10.20;;;4.80;;
41817;SDS011;27493;51.730;5.294;2023-04-07T07:28:57;7.73;;;4.57;;
41817;SDS011;27493;51.730;5.294;2023-04-07T07:31:22;9.73;;;4.77;;
41817;SDS011;27493;51.730;5.294;2023-04-07T07:33:48;11.67;;;4.40;;
41817;SDS011;27493;51.730;5.294;2023-04-07T07:36:15;13.10;;;4.77;;
41817;SDS011;27493;51.730;5.294;2023-04-07T07:38:40;11.50;;;6.90;;
41817;SDS011;27493;51.730;5.294;2023-04-07T07:41:05;8.90;;;4.93;;
41817;SDS011;27493;51.730;5.294;2023-04-07T07:43:31;8.50;;;4.30;;
41817;SDS011;27493;51.730;5.294;2023-04-07T07:46:03;11.57;;;4.70;;
41817;SDS011;27493;51.730;5.294;2023-04-07T07:48:28;8.40;;;4.50;;
41817;SDS011;27493;51.730;5.294;2023-04-07T07:50:53;11.13;;;4.43;;
41817;SDS011;27493;51.730;5.294;2023-04-07T07:53:20;12.83;;;4.50;;
41817;SDS011;27493;51.730;5.294;2023-04-07T07:55:46;13.23;;;4.53;;
41817;SDS011;27493;51.730;5.294;2023-04-07T07:58:11;12.00;;;4.80;;
41817;SDS011;27493;51.730;5.294;2023-04-07T08:00:36;9.73;;;4.40;;
41817;SDS011;27493;51.730;5.294;2023-04-07T08:03:01;5.67;;;4.23;;
41817;SDS011;27493;51.730;5.294;2023-04-07T08:05:26;7.97;;;4.83;;
41817;SDS011;27493;51.730;5.294;2023-04-07T08:07:52;7.57;;;4.40;;
41817;SDS011;27493;51.730;5.294;2023-04-07T08:10:17;9.67;;;4.30;;
41817;SDS011;27493;51.730;5.294;2023-04-07T08:12:44;6.30;;;3.80;;
41817;SDS011;27493;51.730;5.294;2023-04-07T08:15:09;6.67;;;3.70;;
41817;SDS011;27493;51.730;5.294;2023-04-07T08:17:35;9.60;;;4.03;;
41817;SDS011;27493;51.730;5.294;2023-04-07T08:20:00;4.47;;;3.97;;
41817;SDS011;27493;51.730;5.294;2023-04-07T08:22:25;6.73;;;3.83;;
41817;SDS011;27493;51.730;5.294;2023-04-07T08:24:50;10.20;;;3.43;;
41817;SDS011;27493;51.730;5.294;2023-04-07T08:27:16;6.73;;;3.27;;
41817;SDS011;27493;51.730;5.294;2023-04-07T08:29:41;6.87;;;3.33;;
41817;SDS011;27493;51.730;5.294;2023-04-07T08:32:06;7.93;;;3.60;;
41817;SDS011;27493;51.730;5.294;2023-04-07T08:34:31;9.73;;;3.23;;
41817;SDS011;27493;51.730;5.294;2023-04-07T08:36:56;6.77;;;3.33;;
41817;SDS011;27493;51.730;5.294;2023-04-07T08:39:22;6.47;;;3.00;;
41817;SDS011;27493;51.730;5.294;2023-04-07T08:41:49;5.47;;;2.90;;
41817;SDS011;27493;51.730;5.294;2023-04-07T08:44:14;7.90;;;3.23;;
41817;SDS011;27493;51.730;5.294;2023-04-07T08:46:40;10.87;;;3.20;;
41817;SDS011;27493;51.730;5.294;2023-04-07T08:49:10;6.77;;;2.97;;
41817;SDS011;27493;51.730;5.294;2023-04-07T08:51:37;11.73;;;3.87;;
41817;SDS011;27493;51.730;5.294;2023-04-07T08:54:11;7.20;;;3.27;;
41817;SDS011;27493;51.730;5.294;2023-04-07T08:56:37;10.43;;;3.07;;
41817;SDS011;27493;51.730;5.294;2023-04-07T08:59:03;13.57;;;3.73;;
41817;SDS011;27493;51.730;5.294;2023-04-07T09:01:29;11.50;;;4.07;;
41817;SDS011;27493;51.730;5.294;2023-04-07T09:03:55;8.73;;;3.20;;
41817;SDS011;27493;51.730;5.294;2023-04-07T09:06:21;8.53;;;3.00;;
41817;SDS011;27493;51.730;5.294;2023-04-07T09:08:47;10.70;;;3.20;;
41817;SDS011;27493;51.730;5.294;2023-04-07T09:11:12;8.87;;;2.67;;
41817;SDS011;27493;51.730;5.294;2023-04-07T09:13:37;9.23;;;3.10;;
41817;SDS011;27493;51.730;5.294;2023-04-07T09:16:02;10.33;;;3.13;;
41817;SDS011;27493;51.730;5.294;2023-04-07T09:18:27;7.13;;;3.10;;
41817;SDS011;27493;51.730;5.294;2023-04-07T09:20:54;7.70;;;3.13;;
41817;SDS011;27493;51.730;5.294;2023-04-07T09:23:26;7.23;;;3.03;;
41817;SDS011;27493;51.730;5.294;2023-04-07T09:25:53;6.63;;;2.70;;
41817;SDS011;27493;51.730;5.294;2023-04-07T09:28:18;7.27;;;2.57;;
41817;SDS011;27493;51.730;5.294;2023-04-07T09:30:51;6.80;;;2.43;;
41817;SDS011;27493;51.730;5.294;2023-04-07T09:33:17;8.47;;;2.53;;
41817;SDS011;27493;51.730;5.294;2023-04-07T09:35:50;6.50;;;2.63;;
41817;SDS011;27493;51.730;5.294;2023-04-07T09:38:17;9.13;;;2.40;;
41817;SDS011;27493;51.730;5.294;2023-04-07T09:40:42;4.43;;;2.30;;
41817;SDS011;27493;51.730;5.294;2023-04-07T09:43:13;4.43;;;2.23;;
41817;SDS011;27493;51.730;5.294;2023-04-07T09:45:38;6.20;;;2.60;;
41817;SDS011;27493;51.730;5.294;2023-04-07T09:48:04;9.07;;;2.87;;
41817;SDS011;27493;51.730;5.294;2023-04-07T09:50:30;6.07;;;2.87;;
41817;SDS011;27493;51.730;5.294;2023-04-07T09:52:56;7.60;;;3.33;;
41817;SDS011;27493;51.730;5.294;2023-04-07T09:55:22;9.47;;;3.20;;
41817;SDS011;27493;51.730;5.294;2023-04-07T09:57:48;9.80;;;3.60;;
41817;SDS011;27493;51.730;5.294;2023-04-07T10:00:13;8.40;;;2.67;;
41817;SDS011;27493;51.730;5.294;2023-04-07T10:02:39;6.67;;;2.77;;
41817;SDS011;27493;51.730;5.294;2023-04-07T10:05:05;9.87;;;3.40;;
41817;SDS011;27493;51.730;5.294;2023-04-07T10:07:30;11.83;;;3.20;;
41817;SDS011;27493;51.730;5.294;2023-04-07T10:09:56;11.43;;;3.47;;
41817;SDS011;27493;51.730;5.294;2023-04-07T10:12:21;10.37;;;3.90;;
41817;SDS011;27493;51.730;5.294;2023-04-07T10:14:48;7.73;;;3.87;;
41817;SDS011;27493;51.730;5.294;2023-04-07T10:17:14;8.83;;;3.47;;
41817;SDS011;27493;51.730;5.294;2023-04-07T10:19:42;14.20;;;4.77;;
41817;SDS011;27493;51.730;5.294;2023-04-07T10:22:08;8.90;;;4.37;;
41817;SDS011;27493;51.730;5.294;2023-04-07T10:27:03;8.77;;;3.97;;
41817;SDS011;27493;51.730;5.294;2023-04-07T10:29:31;7.93;;;3.77;;
41817;SDS011;27493;51.730;5.294;2023-04-07T10:31:58;10.87;;;3.73;;
41817;SDS011;27493;51.730;5.294;2023-04-07T10:37:12;8.47;;;3.50;;
41817;SDS011;27493;51.730;5.294;2023-04-07T10:39:38;10.03;;;3.53;;
41817;SDS011;27493;51.730;5.294;2023-04-07T10:42:03;11.23;;;3.93;;
41817;SDS011;27493;51.730;5.294;2023-04-07T10:44:43;7.90;;;3.17;;
41817;SDS011;27493;51.730;5.294;2023-04-07T10:47:09;10.63;;;3.43;;
41817;SDS011;27493;51.730;5.294;2023-04-07T10:49:34;7.37;;;2.97;;
41817;SDS011;27493;51.730;5.294;2023-04-07T10:54:40;10.93;;;4.00;;
41817;SDS011;27493;51.730;5.294;2023-04-07T10:57:12;9.53;;;3.17;;
41817;SDS011;27493;51.730;5.294;2023-04-07T10:59:39;9.63;;;3.47;;
41817;SDS011;27493;51.730;5.294;2023-04-07T11:04:39;8.20;;;3.17;;
41817;SDS011;27493;51.730;5.294;2023-04-07T11:07:05;10.03;;;3.57;;
41817;SDS011;27493;51.730;5.294;2023-04-07T11:09:31;6.33;;;3.10;;
41817;SDS011;27493;51.730;5.294;2023-04-07T11:11:56;8.77;;;3.20;;
41817;SDS011;27493;51.730;5.294;2023-04-07T11:14:28;13.03;;;3.37;;
41817;SDS011;27493;51.730;5.294;2023-04-07T11:16:54;6.00;;;2.77;;
41817;SDS011;27493;51.730;5.294;2023-04-07T11:19:19;11.13;;;3.57;;
41817;SDS011;27493;51.730;5.294;2023-04-07T11:21:45;10.03;;;3.40;;
41817;SDS011;27493;51.730;5.294;2023-04-07T11:24:30;7.80;;;2.93;;
41817;SDS011;27493;51.730;5.294;2023-04-07T11:26:55;9.13;;;3.20;;
41817;SDS011;27493;51.730;5.294;2023-04-07T11:29:26;7.80;;;3.00;;
41817;SDS011;27493;51.730;5.294;2023-04-07T11:31:51;12.53;;;3.70;;
41817;SDS011;27493;51.730;5.294;2023-04-07T11:34:17;9.53;;;3.50;;
41817;SDS011;27493;51.730;5.294;2023-04-07T11:36:42;11.07;;;3.30;;
41817;SDS011;27493;51.730;5.294;2023-04-07T11:39:17;9.73;;;3.00;;
41817;SDS011;27493;51.730;5.294;2023-04-07T11:41:46;10.03;;;3.30;;
41817;SDS011;27493;51.730;5.294;2023-04-07T11:44:11;11.80;;;3.87;;
41817;SDS011;27493;51.730;5.294;2023-04-07T11:46:50;9.67;;;3.60;;
41817;SDS011;27493;51.730;5.294;2023-04-07T11:49:16;11.57;;;3.50;;
41817;SDS011;27493;51.730;5.294;2023-04-07T11:51:42;12.37;;;3.77;;
41817;SDS011;27493;51.730;5.294;2023-04-07T11:54:08;10.80;;;4.37;;
41817;SDS011;27493;51.730;5.294;2023-04-07T11:56:41;10.27;;;3.40;;
41817;SDS011;27493;51.730;5.294;2023-04-07T11:59:06;10.33;;;3.90;;
41817;SDS011;27493;51.730;5.294;2023-04-07T12:01:38;7.70;;;3.00;;
41817;SDS011;27493;51.730;5.294;2023-04-07T12:10:41;12.03;;;4.03;;
41817;SDS011;27493;51.730;5.294;2023-04-07T12:13:07;14.50;;;4.47;;
41817;SDS011;27493;51.730;5.294;2023-04-07T12:15:32;15.30;;;4.13;;
41817;SDS011;27493;51.730;5.294;2023-04-07T12:17:58;14.80;;;3.63;;
41817;SDS011;27493;51.730;5.294;2023-04-07T12:20:23;13.37;;;4.07;;
41817;SDS011;27493;51.730;5.294;2023-04-07T12:22:48;11.07;;;3.57;;
41817;SDS011;27493;51.730;5.294;2023-04-07T12:25:13;12.27;;;3.80;;
41817;SDS011;27493;51.730;5.294;2023-04-07T12:27:38;12.00;;;4.47;;
41817;SDS011;27493;51.730;5.294;2023-04-07T12:30:04;11.03;;;3.77;;
41817;SDS011;27493;51.730;5.294;2023-04-07T12:32:29;11.60;;;3.80;;
41817;SDS011;27493;51.730;5.294;2023-04-07T12:34:56;14.47;;;3.80;;
41817;SDS011;27493;51.730;5.294;2023-04-07T12:37:21;11.10;;;4.20;;
41817;SDS011;27493;51.730;5.294;2023-04-07T12:39:47;12.73;;;4.33;;
41817;SDS011;27493;51.730;5.294;2023-04-07T12:42:12;11.10;;;4.17;;
41817;SDS011;27493;51.730;5.294;2023-04-07T12:44:38;9.57;;;3.63;;
41817;SDS011;27493;51.730;5.294;2023-04-07T12:47:03;10.13;;;4.47;;
41817;SDS011;27493;51.730;5.294;2023-04-07T12:49:29;12.57;;;3.80;;
41817;SDS011;27493;51.730;5.294;2023-04-07T12:51:54;9.60;;;4.00;;
41817;SDS011;27493;51.730;5.294;2023-04-07T12:54:19;13.47;;;3.90;;
41817;SDS011;27493;51.730;5.294;2023-04-07T12:56:44;10.53;;;4.10;;
41817;SDS011;27493;51.730;5.294;2023-04-07T12:59:10;9.10;;;3.97;;
41817;SDS011;27493;51.730;5.294;2023-04-07T13:01:36;9.57;;;3.40;;
41817;SDS011;27493;51.730;5.294;2023-04-07T13:04:01;9.00;;;3.20;;
41817;SDS011;27493;51.730;5.294;2023-04-07T13:06:27;8.90;;;3.20;;
41817;SDS011;27493;51.730;5.294;2023-04-07T13:08:52;9.30;;;3.20;;
41817;SDS011;27493;51.730;5.294;2023-04-07T13:11:17;10.67;;;3.10;;
41817;SDS011;27493;51.730;5.294;2023-04-07T13:13:42;12.50;;;4.13;;
41817;SDS011;27493;51.730;5.294;2023-04-07T13:16:07;10.23;;;3.80;;
41817;SDS011;27493;51.730;5.294;2023-04-07T13:18:32;15.13;;;3.70;;
41817;SDS011;27493;51.730;5.294;2023-04-07T13:20:58;15.80;;;3.80;;
41817;SDS011;27493;51.730;5.294;2023-04-07T13:23:23;11.50;;;4.37;;
41817;SDS011;27493;51.730;5.294;2023-04-07T13:25:48;11.67;;;3.27;;
41817;SDS011;27493;51.730;5.294;2023-04-07T13:28:14;12.40;;;3.13;;
41817;SDS011;27493;51.730;5.294;2023-04-07T13:30:42;10.03;;;3.10;;
41817;SDS011;27493;51.730;5.294;2023-04-07T13:33:07;11.90;;;3.10;;
41817;SDS011;27493;51.730;5.294;2023-04-07T13:35:33;9.13;;;3.70;;
41817;SDS011;27493;51.730;5.294;2023-04-07T13:38:00;10.53;;;3.43;;
41817;SDS011;27493;51.730;5.294;2023-04-07T13:40:25;9.27;;;3.70;;
41817;SDS011;27493;51.730;5.294;2023-04-07T13:42:50;14.20;;;4.17;;
41817;SDS011;27493;51.730;5.294;2023-04-07T13:45:15;12.80;;;3.90;;
41817;SDS011;27493;51.730;5.294;2023-04-07T13:47:40;12.97;;;4.33;;
41817;SDS011;27493;51.730;5.294;2023-04-07T13:50:06;13.00;;;4.40;;
41817;SDS011;27493;51.730;5.294;2023-04-07T13:52:31;15.63;;;4.17;;
41817;SDS011;27493;51.730;5.294;2023-04-07T13:54:59;10.23;;;3.70;;
41817;SDS011;27493;51.730;5.294;2023-04-07T13:57:24;12.07;;;4.90;;
41817;SDS011;27493;51.730;5.294;2023-04-07T13:59:50;12.63;;;4.60;;
41817;SDS011;27493;51.730;5.294;2023-04-07T14:02:18;9.47;;;4.30;;
41817;SDS011;27493;51.730;5.294;2023-04-07T14:04:43;11.20;;;5.03;;
41817;SDS011;27493;51.730;5.294;2023-04-07T14:07:08;15.53;;;4.97;;
41817;SDS011;27493;51.730;5.294;2023-04-07T14:09:34;12.70;;;5.63;;
41817;SDS011;27493;51.730;5.294;2023-04-07T14:11:59;14.33;;;5.83;;
41817;SDS011;27493;51.730;5.294;2023-04-07T14:14:24;15.33;;;6.30;;
41817;SDS011;27493;51.730;5.294;2023-04-07T14:16:49;15.00;;;5.80;;
41817;SDS011;27493;51.730;5.294;2023-04-07T14:19:17;19.83;;;6.20;;
41817;SDS011;27493;51.730;5.294;2023-04-07T14:21:42;18.07;;;5.23;;
41817;SDS011;27493;51.730;5.294;2023-04-07T14:24:07;15.73;;;5.97;;
41817;SDS011;27493;51.730;5.294;2023-04-07T14:26:33;14.03;;;6.23;;
41817;SDS011;27493;51.730;5.294;2023-04-07T14:28:58;16.67;;;5.80;;
41817;SDS011;27493;51.730;5.294;2023-04-07T14:31:23;9.33;;;5.40;;
41817;SDS011;27493;51.730;5.294;2023-04-07T14:33:48;16.60;;;5.77;;
41817;SDS011;27493;51.730;5.294;2023-04-07T14:36:14;12.47;;;5.40;;
41817;SDS011;27493;51.730;5.294;2023-04-07T14:38:40;12.53;;;5.40;;
41817;SDS011;27493;51.730;5.294;2023-04-07T14:41:05;16.67;;;5.10;;
41817;SDS011;27493;51.730;5.294;2023-04-07T14:43:31;12.27;;;4.77;;
41817;SDS011;27493;51.730;5.294;2023-04-07T14:45:56;16.57;;;5.63;;
41817;SDS011;27493;51.730;5.294;2023-04-07T14:48:23;11.40;;;4.80;;
41817;SDS011;27493;51.730;5.294;2023-04-07T14:50:48;16.63;;;5.27;;
41817;SDS011;27493;51.730;5.294;2023-04-07T14:53:14;10.67;;;4.10;;